Terminal Aerodrome Forecast
Issued by NWS

Home | Current Version | Previous Version | Graphics & Text | Print | Product List | Glossary On
Versions: 1 2 3 4 5 6 7 8 9 10 11 12 13 14
000
FTUS43 KGRB 071737
TAFCWA
TAF
KCWA 071737Z 0718/0818 26015G25KT 6SM -SN OVC019
      TEMPO 0718/0722 3SM -SHSN BKN020
     FM080000 26016G26KT P6SM -SN OVC015
     FM081300 29013G21KT P6SM -SN OVC016
      TEMPO 0814/0818 3SM -SHSN BKN012 BKN020=

USA.gov is the U.S. government's official web portal to all federal, state and local government web resources and services.